brissiewebsurf Speed Test Results

        Days  
brissiewebsurf brissiewebsurf
Share Query AVG Img MAX Img AVG bbc MAX bbc iFrame
  
 
Showing results 1 to 25 of 87 for Username brissiewebsurf arrow up Only Upload    arrow down Only Download   
Time arrow down ct    arrow up arrow down   Size    Speed ConnectID Provider TID
Thu Apr 27 2017 @ 3:48:59 am Sydney, AU US arrow 480 kB 670 Kbps 84 kB/s14502133508916Cadence Design historyF43frkNLUshare history
Thu Apr 27 2017 @ 3:47:15 am Sydney, AU US arrow 200 MB 6.69 Mbps 836 kB/s14502133508916Cadence Design historyfc6IeVOslshare history
Thu Apr 27 2017 @ 3:36:21 am Sydney, AU US arrow 3 MB 689 Kbps 86 kB/s14502133508916Cadence Design historyWSinxtpgDshare history
Thu Apr 27 2017 @ 3:35:03 am Sydney, AU US arrow 480 kB 672 Kbps 84 kB/s14502133508916Cadence Design historytmSW7DqGlshare history
Thu Apr 27 2017 @ 3:34:27 am Sydney, AU US arrow 480 kB 672 Kbps 84 kB/s14502133508916Cadence Design historyrP9HAQlMhshare history
Thu Apr 27 2017 @ 3:33:49 am Sydney, AU US arrow 150 MB 7.3 Mbps 913 kB/s14502133508916Cadence Design historyS7c4Da2tmshare history
Thu Apr 27 2017 @ 3:29:46 am Sydney, AU US arrow 6.4 MB 6.74 Mbps 842 kB/s14502133508916Cadence Design historyTB964wGMfshare history
Fri Apr 21 2017 @ 3:16:49 am Sydney, AU arrow 1.2 MB 903 Kbps 113 kB/s11201603892381Dodo Australia historyDsRxBE40Tshare history
Fri Apr 21 2017 @ 3:16:20 am Sydney, AU arrow 6.3 MB 6.89 Mbps 861 kB/s11201603892381Dodo Australia historyQNeBV906Xshare history
Fri Apr 21 2017 @ 2:53:55 am Sydney, AU AU arrow 125 MB 6.96 Mbps 870 kB/s11201600041902Dodo Australia historyMtvyFrWsDshare history
Fri Apr 21 2017 @ 2:50:58 am Sydney, AU AU arrow 1.2 MB 904 Kbps 113 kB/s11201600041902Dodo Australia historyhobc9ys8Sshare history
Fri Apr 21 2017 @ 2:50:27 am Sydney, AU AU arrow 6.3 MB 6.67 Mbps 833 kB/s11201600041902Dodo Australia history2nB6qejpyshare history
Fri Apr 21 2017 @ 1:18:23 am Sydney, AU AU arrow 6.3 MB 5.29 Mbps 662 kB/s11201601330347Dodo Australia historyR1Wt00ABMshare history
Tue Mar 07 2017 @ 5:43:02 am Sydney, AU arrow 6.2 MB 4.92 Mbps 614 kB/s1120159784812Dodo Australia historyWRTnaqmF7share history
Thu Feb 16 2017 @ 3:01:24 am Sydney, AU arrow 6.2 MB 5.79 Mbps 724 kB/s1120160013889Dodo Australia history4B5tKQoisshare history
Wed Feb 15 2017 @ 5:01:01 am Sydney, AU arrow 6.2 MB 5.8 Mbps 725 kB/s1120160013889Dodo Australia historyEzymvFoVXshare history
Wed Feb 15 2017 @ 4:45:42 am Sydney, AU arrow 480 kB 683 Kbps 85 kB/s1120160013889Dodo Australia historyBSLtsiVq6share history
Wed Feb 15 2017 @ 4:44:31 am Sydney, AU arrow 200 MB 5.75 Mbps 718 kB/s1120160013889Dodo Australia historyK0UDgLiHVshare history
Wed Feb 08 2017 @ 6:58:49 am Sydney, AU AU arrow 1.1 MB 178 Kbps 22 kB/s11201596916803Dodo Australia historyKr2NT7fvEshare history
Wed Feb 08 2017 @ 6:58:08 am Sydney, AU AU arrow 1.1 MB 844 Kbps 106 kB/s11201596916803Dodo Australia historyGdVxHAUwnshare history
Wed Feb 08 2017 @ 6:56:25 am Sydney, AU AU arrow 6.3 MB 5.46 Mbps 682 kB/s11201596916803Dodo Australia history5knfLxME3share history
Wed Feb 08 2017 @ 6:55:32 am Sydney, AU AU arrow 6.3 MB 5.39 Mbps 674 kB/s11201596916803Dodo Australia historyeqHyPs2XQshare history
Tue Nov 29 2016 @ 2:14:34 am Sydney, AU AU arrow 6.3 MB 7.5 Mbps 938 kB/s1120160407943Dodo Australia historyptcPiXe7Gshare history
Tue Nov 29 2016 @ 2:13:59 am Sydney, AU AU arrow 1.1 MB 906 Kbps 113 kB/s1120160407943Dodo Australia historyNlP0TAcL1share history
Tue Nov 29 2016 @ 2:13:31 am Sydney, AU AU arrow 6.3 MB 7.43 Mbps 929 kB/s1120160407943Dodo Australia historyosUTGHqpBshare history
  
Displaying Internet Speed Test results for Username brissiewebsurf
Speed Test Version 15.9
© 2017 TestMy Net LLC - TestMy.net - Terms & Privacy - Mobile